KCDW/CDW METAR and TAF weather

Enter ICAO airport designator
Station Type Date Time Source
KCDW METAR 2019/10/18 10:53 UTC NOAA

KCDW 181053Z AUTO 31005KT 10SM OVC033 11/04 A2977 RMK AO2 SLP087 T01060039


Station Type Date Time Source
KCDW Decoded METAR 2019/10/18 10:53 UTC NOAA

CALDWELL ESSEX COUNTY AIRPORT , NJ, United States (KCDW) 40-53N 074-17W 64M
Oct 18, 2019 - 06:53 AM EDT / 2019.10.18 1053 UTC
Wind: from the NW (310 degrees) at 6 MPH (5 KT):0
Visibility: 10 mile(s):0
Sky conditions: overcast
Temperature: 51.1 F (10.6 C)
Dew Point: 39.0 F (3.9 C)
Relative Humidity: 63%
Pressure (altimeter): 29.77 in. Hg (1008 hPa)
ob: KCDW 181053Z AUTO 31005KT 10SM OVC033 11/04 A2977 RMK AO2 SLP087 T01060039
cycle: 11

Station Type Date Time Source
KCDW TAF UTC NOAA

Error!

Example: see airport list